Time;durP1;ratioP1;P1;durP2;ratioP2;P2;SDS_P1;SDS_P2;PMS_P1;PMS_P2;Temp;Humidity;BMP_temperature;BMP_pressure;BME280_temperature;BME280_humidity;BME280_pressure;Samples;Min_cycle;Max_cycle;Signal;HPM_P1;HPM_P2
2023/01/26 00:00:07;;;;;;;;;;;1.50;99.90;;;;;;4924755;29;19919;-85
2023/01/26 00:02:34;;;;;;;;;;;1.50;99.90;;;;;;4922140;29;19927;-83
2023/01/26 00:05:01;;;;;;;;;;;1.50;99.90;;;;;;4922099;29;19983;-86
2023/01/26 00:07:29;;;;;;;;;;;1.50;99.90;;;;;;4927884;29;19947;-93
2023/01/26 00:09:56;;;;;;;;;;;1.50;99.90;;;;;;4927357;29;19959;-83
2023/01/26 00:12:23;;;;;;;;;;;1.50;99.90;;;;;;4910689;29;19927;-84
2023/01/26 00:14:52;;;;;;;;;;;1.50;99.90;;;;;;4925034;29;19931;-83
2023/01/26 00:17:30;;;;;;;;;;;1.50;99.90;;;;;;4926321;29;19927;-83
2023/01/26 00:19:58;;;;;;;;;;;1.50;99.90;;;;;;4927643;29;20429;-85
2023/01/26 00:22:27;;;;;;;;;;;1.50;99.90;;;;;;4927253;29;19928;-84
2023/01/26 00:24:54;;;;;;;;;;;1.50;99.90;;;;;;4922292;29;19927;-84
2023/01/26 00:27:21;;;;;;;;;;;1.50;99.90;;;;;;4930573;29;19983;-83
2023/01/26 00:29:48;;;;;;;;;;;1.50;99.90;;;;;;4916504;29;19935;-84
2023/01/26 00:32:17;;;;;;;;;;;1.50;99.90;;;;;;4927064;29;19931;-83
2023/01/26 00:34:45;;;;;;;;;;;1.50;99.90;;;;;;4928361;29;19934;-89
2023/01/26 00:37:12;;;;;;;;;;;1.50;99.90;;;;;;4927649;29;19931;-83
2023/01/26 00:39:40;;;;;;;;;;;1.50;99.90;;;;;;4931029;29;19935;-84
2023/01/26 00:42:09;;;;;;;;;;;1.50;99.90;;;;;;4933283;29;19937;-84
2023/01/26 00:44:39;;;;;;;;;;;1.50;99.90;;;;;;4928618;29;20300;-83
2023/01/26 00:47:11;;;;;;;;;;;1.50;99.90;;;;;;4927055;29;19927;-86
2023/01/26 00:49:41;;;;;;;;;;;1.50;99.90;;;;;;4923080;29;19967;-84
2023/01/26 00:52:11;;;;;;;;;;;1.50;99.90;;;;;;4926557;29;19927;-81
2023/01/26 00:54:38;;;;;;;;;;;1.50;99.90;;;;;;4926806;29;20022;-84
2023/01/26 00:57:06;;;;;;;;;;;1.50;99.90;;;;;;4927661;29;19963;-84
2023/01/26 00:59:33;;;;;;;;;;;1.50;99.90;;;;;;4925536;29;19938;-84
2023/01/26 01:02:01;;;;;;;;;;;1.50;99.90;;;;;;4916718;29;19991;-83
2023/01/26 01:04:33;;;;;;;;;;;1.50;99.90;;;;;;4919558;29;19935;-84
2023/01/26 01:07:03;;;;;;;;;;;1.50;99.90;;;;;;4930044;29;19951;-84
2023/01/26 01:09:31;;;;;;;;;;;1.50;99.90;;;;;;4931363;29;19915;-88
2023/01/26 01:11:59;;;;;;;;;;;1.50;99.90;;;;;;4923824;29;19951;-83
2023/01/26 01:14:28;;;;;;;;;;;1.50;99.90;;;;;;4921984;29;20003;-82
2023/01/26 01:16:58;;;;;;;;;;;1.50;99.90;;;;;;4929902;29;19931;-84
2023/01/26 01:19:26;;;;;;;;;;;1.50;99.90;;;;;;4910687;29;19931;-87
2023/01/26 01:21:53;;;;;;;;;;;1.50;99.90;;;;;;4924034;29;20436;-83
2023/01/26 01:24:22;;;;;;;;;;;1.50;99.90;;;;;;4926156;29;19951;-85
2023/01/26 01:26:50;;;;;;;;;;;1.50;99.90;;;;;;4910827;29;19938;-83
2023/01/26 01:29:21;;;;;;;;;;;1.50;99.90;;;;;;4927944;29;19926;-83
2023/01/26 01:31:51;;;;;;;;;;;1.50;99.90;;;;;;4911753;29;19931;-84
2023/01/26 01:34:20;;;;;;;;;;;1.50;99.90;;;;;;4927481;29;19931;-84
2023/01/26 01:36:49;;;;;;;;;;;1.50;99.90;;;;;;4925359;29;19931;-85
2023/01/26 01:39:16;;;;;;;;;;;1.50;99.90;;;;;;4926718;29;19969;-87
2023/01/26 01:41:45;;;;;;;;;;;1.40;99.90;;;;;;4929378;29;19927;-83
2023/01/26 01:44:16;;;;;;;;;;;1.40;99.90;;;;;;4929955;29;19959;-82
2023/01/26 01:46:45;;;;;;;;;;;1.40;99.90;;;;;;4923670;29;19935;-87
2023/01/26 01:49:20;;;;;;;;;;;1.50;99.90;;;;;;4930528;29;19956;-83
2023/01/26 01:51:50;;;;;;;;;;;1.40;99.90;;;;;;4923526;29;19935;-81
2023/01/26 01:54:20;;;;;;;;;;;1.40;99.90;;;;;;4923050;29;20017;-86
2023/01/26 01:56:50;;;;;;;;;;;1.40;99.90;;;;;;4924205;29;19955;-86
2023/01/26 01:59:19;;;;;;;;;;;1.40;99.90;;;;;;4909756;29;19937;-82
2023/01/26 02:01:47;;;;;;;;;;;1.50;99.90;;;;;;4922652;29;19931;-83
2023/01/26 02:04:15;;;;;;;;;;;1.40;99.90;;;;;;4907474;29;20093;-83
2023/01/26 02:06:47;;;;;;;;;;;1.40;99.90;;;;;;4919051;29;19942;-86
2023/01/26 02:11:59;;;;;;;;;;;1.40;99.90;;;;;;4924050;29;19927;-86
2023/01/26 02:14:27;;;;;;;;;;;1.40;99.90;;;;;;4921846;29;20398;-86
2023/01/26 02:16:55;;;;;;;;;;;1.40;99.90;;;;;;4925407;29;19931;-83
2023/01/26 02:19:26;;;;;;;;;;;1.40;99.90;;;;;;4909488;29;19927;-85
2023/01/26 02:21:54;;;;;;;;;;;1.40;99.90;;;;;;4922176;29;19960;-81
2023/01/26 02:24:25;;;;;;;;;;;1.40;99.90;;;;;;4926016;29;19938;-82
2023/01/26 02:26:54;;;;;;;;;;;1.40;99.90;;;;;;4906759;29;19933;-84
2023/01/26 02:29:22;;;;;;;;;;;1.40;99.90;;;;;;4925460;29;19912;-87
2023/01/26 02:31:52;;;;;;;;;;;1.40;99.90;;;;;;4905873;29;19939;-85
2023/01/26 02:34:27;;;;;;;;;;;1.40;99.90;;;;;;4910490;29;20730;-82
2023/01/26 02:36:58;;;;;;;;;;;1.40;99.90;;;;;;4908231;29;19933;-84
2023/01/26 03:06:41;;;;;;;;;;;1.40;99.90;;;;;;4726286;27;19963;-84
2023/01/26 03:09:09;;;;;;;;;;;1.50;99.90;;;;;;4894123;29;19928;-83
2023/01/26 03:11:40;;;;;;;;;;;1.50;99.90;;;;;;4896013;29;19936;-85
2023/01/26 03:14:10;;;;;;;;;;;1.40;99.90;;;;;;4891724;29;19967;-86
2023/01/26 03:16:40;;;;;;;;;;;1.50;99.90;;;;;;4895797;29;19935;-84
2023/01/26 03:35:14;;;;;;;;;;;1.40;99.90;;;;;;4951195;29;19930;-84
2023/01/26 04:01:27;;;;;;;;;;;1.40;99.90;;;;;;4930859;29;19952;-82
2023/01/26 04:09:32;;;;;;;;;;;1.40;99.90;;;;;;4929264;29;19923;-83
2023/01/26 04:12:00;;;;;;;;;;;1.40;99.90;;;;;;4934155;29;19935;-84
2023/01/26 04:22:45;;;;;;;;;;;1.40;99.90;;;;;;4930134;29;19923;-85
2023/01/26 04:25:17;;;;;;;;;;;1.40;99.90;;;;;;4930341;29;19927;-83
2023/01/26 04:27:45;;;;;;;;;;;1.40;99.90;;;;;;4935198;29;19931;-88
2023/01/26 04:30:15;;;;;;;;;;;1.40;99.90;;;;;;4908538;29;19938;-83
2023/01/26 04:32:44;;;;;;;;;;;1.40;99.90;;;;;;4928777;29;19935;-83
2023/01/26 04:35:12;;;;;;;;;;;1.50;99.90;;;;;;4910869;29;19928;-83
2023/01/26 04:37:40;;;;;;;;;;;1.40;99.90;;;;;;4939583;28;19931;-83
2023/01/26 04:40:08;;;;;;;;;;;1.40;99.90;;;;;;4932756;29;20006;-82
2023/01/26 04:42:37;;;;;;;;;;;1.40;99.90;;;;;;4924342;29;19938;-89
2023/01/26 04:45:06;;;;;;;;;;;1.40;99.90;;;;;;4933672;29;19927;-84
2023/01/26 04:54:40;;;;;;;;;;;1.40;99.90;;;;;;5240288;23;19950;-81
2023/01/26 05:35:16;;;;;;;;;;;1.40;99.90;;;;;;4856639;29;19932;-82
2023/01/26 05:37:46;;;;;;;;;;;1.40;99.90;;;;;;4868441;29;19935;-81
2023/01/26 05:40:15;;;;;;;;;;;1.40;99.90;;;;;;4845433;29;20678;-84
2023/01/26 05:42:43;;;;;;;;;;;1.30;99.90;;;;;;4824693;29;20422;-84
2023/01/26 05:45:34;;;;;;;;;;;1.40;99.90;;;;;;4834453;29;19936;-82
2023/01/26 05:48:11;;;;;;;;;;;1.40;99.90;;;;;;4859157;29;20346;-81
2023/01/26 05:50:40;;;;;;;;;;;1.30;99.90;;;;;;4841846;29;19935;-82
2023/01/26 05:53:27;;;;;;;;;;;1.40;99.90;;;;;;4845861;29;19928;-80
2023/01/26 05:55:56;;;;;;;;;;;1.40;99.90;;;;;;4847196;29;19932;-84
2023/01/26 05:58:26;;;;;;;;;;;1.40;99.90;;;;;;4926765;23;19974;-82
2023/01/26 06:04:13;;;;;;;;;;;1.40;99.90;;;;;;4916307;23;19939;-80
2023/01/26 06:07:00;;;;;;;;;;;1.40;99.90;;;;;;4935691;28;19926;-86
2023/01/26 06:22:37;;;;;;;;;;;1.30;99.90;;;;;;5601868;23;19995;-81
2023/01/26 06:25:29;;;;;;;;;;;1.40;99.90;;;;;;4939682;29;19931;-82
2023/01/26 06:27:59;;;;;;;;;;;1.40;99.90;;;;;;4914875;29;19935;-82
2023/01/26 06:30:28;;;;;;;;;;;1.30;99.90;;;;;;4914041;29;19997;-82
2023/01/26 06:33:01;;;;;;;;;;;1.30;99.90;;;;;;4919194;29;19927;-81
2023/01/26 06:35:29;;;;;;;;;;;1.30;99.90;;;;;;4935012;29;19961;-83
2023/01/26 06:38:00;;;;;;;;;;;1.30;99.90;;;;;;4920091;29;19926;-82
2023/01/26 06:40:28;;;;;;;;;;;1.30;99.90;;;;;;4932864;29;20010;-81
2023/01/26 06:42:55;;;;;;;;;;;1.30;99.90;;;;;;4916403;29;19934;-81
2023/01/26 06:45:24;;;;;;;;;;;1.30;99.90;;;;;;4916330;29;20406;-80
2023/01/26 06:47:52;;;;;;;;;;;1.30;99.90;;;;;;4918253;29;19927;-81
2023/01/26 06:50:21;;;;;;;;;;;1.30;99.90;;;;;;4932382;29;19927;-81
2023/01/26 06:52:51;;;;;;;;;;;1.30;99.90;;;;;;4921433;29;19994;-85
2023/01/26 06:55:40;;;;;;;;;;;1.30;99.90;;;;;;4913755;29;19927;-82
2023/01/26 06:58:26;;;;;;;;;;;1.30;99.90;;;;;;4933664;29;19933;-82
2023/01/26 07:01:16;;;;;;;;;;;1.30;99.90;;;;;;4936150;29;19933;-83
2023/01/26 07:03:45;;;;;;;;;;;1.30;99.90;;;;;;4918556;29;20037;-82
2023/01/26 07:06:12;;;;;;;;;;;1.30;99.90;;;;;;4936500;29;19983;-82
2023/01/26 07:08:42;;;;;;;;;;;1.30;99.90;;;;;;4929010;29;19933;-82
2023/01/26 07:11:10;;;;;;;;;;;1.30;99.90;;;;;;4930194;29;19934;-82
2023/01/26 07:13:37;;;;;;;;;;;1.30;99.90;;;;;;4935897;29;20385;-81
2023/01/26 07:16:06;;;;;;;;;;;1.30;99.90;;;;;;4933648;29;19949;-82
2023/01/26 07:18:35;;;;;;;;;;;1.30;99.90;;;;;;4916128;29;19927;-82
2023/01/26 07:21:03;;;;;;;;;;;1.30;99.90;;;;;;4931517;29;20036;-82
2023/01/26 07:23:30;;;;;;;;;;;1.30;99.90;;;;;;4915337;29;19982;-82
2023/01/26 07:25:58;;;;;;;;;;;1.30;99.90;;;;;;4931226;29;19935;-82
2023/01/26 07:28:26;;;;;;;;;;;1.30;99.90;;;;;;4932875;29;19931;-85
2023/01/26 07:30:57;;;;;;;;;;;1.30;99.90;;;;;;5009397;23;19948;-79
2023/01/26 07:33:23;;;;;;;;;;;1.30;99.90;;;;;;4869012;29;19934;-78
2023/01/26 07:35:53;;;;;;;;;;;1.30;99.90;;;;;;4872623;29;19928;-78
2023/01/26 07:38:20;;;;;;;;;;;1.30;99.90;;;;;;4877561;29;19935;-77
2023/01/26 07:40:47;;;;;;;;;;;1.30;99.90;;;;;;4857620;29;19987;-77
2023/01/26 07:43:15;;;;;;;;;;;1.30;99.90;;;;;;4879035;29;20015;-78
2023/01/26 07:45:48;;;;;;;;;;;1.30;99.90;;;;;;4871725;29;19936;-78
2023/01/26 07:48:15;;;;;;;;;;;1.30;99.90;;;;;;4875050;29;19972;-77
2023/01/26 07:50:42;;;;;;;;;;;1.30;99.90;;;;;;4873634;29;19950;-77
2023/01/26 07:53:11;;;;;;;;;;;1.30;99.90;;;;;;4873541;29;19954;-77
2023/01/26 07:55:38;;;;;;;;;;;1.30;99.90;;;;;;4872014;29;19928;-78
2023/01/26 07:58:05;;;;;;;;;;;1.30;99.90;;;;;;4874954;29;20459;-77
2023/01/26 08:00:33;;;;;;;;;;;1.30;99.90;;;;;;4874238;29;19928;-78
2023/01/26 08:03:00;;;;;;;;;;;1.30;99.90;;;;;;4853821;29;19991;-77
2023/01/26 08:05:27;;;;;;;;;;;1.20;99.90;;;;;;4870230;29;19939;-78
2023/01/26 08:07:57;;;;;;;;;;;1.30;99.90;;;;;;4875313;29;19931;-76
2023/01/26 08:10:25;;;;;;;;;;;1.20;99.90;;;;;;4875437;29;19935;-77
2023/01/26 08:12:52;;;;;;;;;;;1.30;99.90;;;;;;4871326;29;19927;-77
2023/01/26 08:15:19;;;;;;;;;;;1.30;99.90;;;;;;4875511;29;20026;-78
2023/01/26 08:17:45;;;;;;;;;;;1.20;99.90;;;;;;4877391;29;19931;-76
2023/01/26 08:20:12;;;;;;;;;;;1.20;99.90;;;;;;4874634;29;19931;-76
2023/01/26 08:22:39;;;;;;;;;;;1.20;99.90;;;;;;4857838;29;19935;-76
2023/01/26 08:25:07;;;;;;;;;;;1.30;99.90;;;;;;4875233;29;19931;-77
2023/01/26 08:27:35;;;;;;;;;;;1.20;99.90;;;;;;4873862;29;20014;-76
2023/01/26 08:30:02;;;;;;;;;;;1.20;99.90;;;;;;4854780;29;19959;-76
2023/01/26 08:32:29;;;;;;;;;;;1.20;99.90;;;;;;4865851;29;19988;-76
2023/01/26 08:34:56;;;;;;;;;;;1.20;99.90;;;;;;4872697;29;19934;-76
2023/01/26 08:37:23;;;;;;;;;;;1.20;99.90;;;;;;4873006;29;19927;-76
2023/01/26 08:39:49;;;;;;;;;;;1.20;99.90;;;;;;4877866;29;19928;-74
2023/01/26 08:42:16;;;;;;;;;;;1.20;99.90;;;;;;4871800;29;19927;-76
2023/01/26 08:44:45;;;;;;;;;;;1.20;99.90;;;;;;4874509;29;19936;-76
2023/01/26 08:47:12;;;;;;;;;;;1.20;99.90;;;;;;4875534;29;19935;-76
2023/01/26 08:49:39;;;;;;;;;;;1.20;99.90;;;;;;4873927;29;19932;-76
2023/01/26 08:52:05;;;;;;;;;;;1.20;99.90;;;;;;4873728;29;19959;-76
2023/01/26 08:54:32;;;;;;;;;;;1.20;99.90;;;;;;4871556;29;19927;-76
2023/01/26 08:56:59;;;;;;;;;;;1.20;99.90;;;;;;4870406;29;19935;-76
2023/01/26 08:59:26;;;;;;;;;;;1.20;99.90;;;;;;4868988;29;19928;-78
2023/01/26 09:01:54;;;;;;;;;;;1.20;99.90;;;;;;4874510;29;20019;-77
2023/01/26 09:04:21;;;;;;;;;;;1.20;99.90;;;;;;4874848;29;19927;-78
2023/01/26 09:06:48;;;;;;;;;;;1.20;99.90;;;;;;4875904;29;19938;-78
2023/01/26 09:09:15;;;;;;;;;;;1.20;99.90;;;;;;4869991;29;20015;-77
2023/01/26 09:11:42;;;;;;;;;;;1.20;99.90;;;;;;4875798;29;19927;-77
2023/01/26 09:14:08;;;;;;;;;;;1.20;99.90;;;;;;4878585;29;19971;-77
2023/01/26 09:16:35;;;;;;;;;;;1.20;99.90;;;;;;4875278;29;19927;-78
2023/01/26 09:19:04;;;;;;;;;;;1.20;99.90;;;;;;4871092;29;19928;-77
2023/01/26 09:21:30;;;;;;;;;;;1.20;99.90;;;;;;4874151;29;20387;-78
2023/01/26 09:23:57;;;;;;;;;;;1.20;99.90;;;;;;4871983;29;19931;-77
2023/01/26 09:26:24;;;;;;;;;;;1.20;99.90;;;;;;4870666;29;19928;-77
2023/01/26 09:28:51;;;;;;;;;;;1.20;99.90;;;;;;4878723;29;19934;-78
2023/01/26 09:31:18;;;;;;;;;;;1.20;99.90;;;;;;4878125;29;19931;-77
2023/01/26 09:33:45;;;;;;;;;;;1.20;99.90;;;;;;4869557;29;20010;-77
2023/01/26 09:36:13;;;;;;;;;;;1.20;99.90;;;;;;4874223;29;19976;-77
2023/01/26 09:38:40;;;;;;;;;;;1.20;99.90;;;;;;4875941;29;19938;-78
2023/01/26 09:41:14;;;;;;;;;;;1.20;99.90;;;;;;4867595;29;19963;-78
2023/01/26 09:43:43;;;;;;;;;;;1.20;99.90;;;;;;4873856;29;19928;-78
2023/01/26 09:46:17;;;;;;;;;;;1.20;99.90;;;;;;4869870;29;19928;-77
2023/01/26 09:48:49;;;;;;;;;;;1.20;99.90;;;;;;4873431;29;20291;-77
2023/01/26 09:51:22;;;;;;;;;;;1.20;99.90;;;;;;4870917;29;19943;-77
2023/01/26 09:53:52;;;;;;;;;;;1.20;99.90;;;;;;4873923;29;19938;-77
2023/01/26 09:56:20;;;;;;;;;;;1.20;99.90;;;;;;4876118;29;20026;-77
2023/01/26 09:58:49;;;;;;;;;;;1.20;99.90;;;;;;4874413;29;21255;-78
2023/01/26 10:01:18;;;;;;;;;;;1.20;99.90;;;;;;4871181;29;19942;-77
2023/01/26 10:03:47;;;;;;;;;;;1.20;99.90;;;;;;4867535;29;19988;-78
2023/01/26 10:06:16;;;;;;;;;;;1.20;99.90;;;;;;4888036;29;19928;-78
2023/01/26 10:09:06;;;;;;;;;;;1.20;99.90;;;;;;4881335;29;19935;-78
2023/01/26 10:11:37;;;;;;;;;;;1.20;99.90;;;;;;4887456;29;19984;-78
2023/01/26 10:14:08;;;;;;;;;;;1.20;99.90;;;;;;4884195;29;19928;-77
2023/01/26 10:16:34;;;;;;;;;;;1.20;99.90;;;;;;4880530;29;19936;-78
2023/01/26 10:19:03;;;;;;;;;;;1.20;99.90;;;;;;4880509;29;20395;-77
2023/01/26 10:21:32;;;;;;;;;;;1.20;99.90;;;;;;4881174;29;19928;-76
2023/01/26 10:24:00;;;;;;;;;;;1.20;99.90;;;;;;4882589;29;20401;-78
2023/01/26 10:26:30;;;;;;;;;;;1.20;99.90;;;;;;4882199;29;19931;-78
2023/01/26 10:28:57;;;;;;;;;;;1.20;99.90;;;;;;4880911;29;19928;-78
2023/01/26 10:31:25;;;;;;;;;;;1.20;99.90;;;;;;4862530;29;19928;-77
2023/01/26 10:33:55;;;;;;;;;;;1.20;99.90;;;;;;4880369;29;20446;-77
2023/01/26 10:36:22;;;;;;;;;;;1.20;99.90;;;;;;4877779;29;20287;-78
2023/01/26 10:38:50;;;;;;;;;;;1.20;99.90;;;;;;4875573;29;19932;-77
2023/01/26 10:41:24;;;;;;;;;;;1.20;99.90;;;;;;4882919;29;19928;-76
2023/01/26 10:43:53;;;;;;;;;;;1.20;99.90;;;;;;4887065;29;20418;-77
2023/01/26 10:46:25;;;;;;;;;;;1.10;99.90;;;;;;4879893;29;19935;-77
2023/01/26 10:48:52;;;;;;;;;;;1.10;99.90;;;;;;4876164;29;19984;-77
2023/01/26 10:51:23;;;;;;;;;;;1.10;99.90;;;;;;4880218;29;19938;-77
2023/01/26 10:53:50;;;;;;;;;;;1.20;99.90;;;;;;4876926;29;19976;-77
2023/01/26 10:56:17;;;;;;;;;;;1.10;99.90;;;;;;4880633;29;19934;-77
2023/01/26 10:58:46;;;;;;;;;;;1.10;99.90;;;;;;4881340;29;19928;-77
2023/01/26 11:01:17;;;;;;;;;;;1.10;99.90;;;;;;4876556;29;19928;-77
2023/01/26 11:03:58;;;;;;;;;;;1.10;99.90;;;;;;4858129;29;19935;-77
2023/01/26 11:06:27;;;;;;;;;;;1.10;99.90;;;;;;4882950;29;19928;-77
2023/01/26 11:08:54;;;;;;;;;;;1.10;99.90;;;;;;4875126;29;19967;-77
2023/01/26 11:11:24;;;;;;;;;;;1.10;99.90;;;;;;4880651;29;19928;-77
2023/01/26 11:14:09;;;;;;;;;;;1.10;99.90;;;;;;4867919;29;19927;-78
2023/01/26 11:16:38;;;;;;;;;;;1.10;99.90;;;;;;4879089;29;19928;-78
2023/01/26 11:19:09;;;;;;;;;;;1.10;99.90;;;;;;4877468;29;20398;-77
2023/01/26 11:21:37;;;;;;;;;;;1.10;99.90;;;;;;4857595;29;20034;-78
2023/01/26 11:24:07;;;;;;;;;;;1.10;99.90;;;;;;4873191;29;19934;-78
2023/01/26 11:26:51;;;;;;;;;;;1.10;99.90;;;;;;4877396;29;20018;-77
2023/01/26 11:29:33;;;;;;;;;;;1.10;99.90;;;;;;4865609;29;19936;-75
2023/01/26 11:32:06;;;;;;;;;;;1.10;99.90;;;;;;4874072;29;19939;-77
2023/01/26 11:34:37;;;;;;;;;;;1.10;99.90;;;;;;4880270;29;19927;-78
2023/01/26 11:37:26;;;;;;;;;;;1.10;99.90;;;;;;4861745;29;20015;-77
2023/01/26 11:39:58;;;;;;;;;;;1.10;99.90;;;;;;4874528;29;19993;-77
2023/01/26 11:42:31;;;;;;;;;;;1.10;99.90;;;;;;4875906;29;20014;-78
2023/01/26 11:45:19;;;;;;;;;;;1.10;99.90;;;;;;4875948;29;19967;-78
2023/01/26 11:47:53;;;;;;;;;;;1.10;99.90;;;;;;4860913;29;20028;-77
2023/01/26 11:50:30;;;;;;;;;;;1.10;99.90;;;;;;4875638;29;20131;-77
2023/01/26 11:53:05;;;;;;;;;;;1.10;99.90;;;;;;4861809;29;19936;-77
2023/01/26 11:55:40;;;;;;;;;;;1.10;99.90;;;;;;4874751;29;20023;-77
2023/01/26 11:58:18;;;;;;;;;;;1.10;99.90;;;;;;4874273;29;20300;-77
2023/01/26 12:00:48;;;;;;;;;;;1.10;99.90;;;;;;4877908;29;19932;-78
2023/01/26 12:03:19;;;;;;;;;;;1.10;99.90;;;;;;4876117;29;19963;-77
2023/01/26 12:05:47;;;;;;;;;;;1.10;99.90;;;;;;4883050;29;19975;-77
2023/01/26 12:08:18;;;;;;;;;;;1.20;99.90;;;;;;4872732;29;19943;-78
2023/01/26 12:10:48;;;;;;;;;;;1.20;99.90;;;;;;4878774;29;20022;-78
2023/01/26 12:13:19;;;;;;;;;;;1.10;99.90;;;;;;4870367;29;19928;-77
2023/01/26 12:15:47;;;;;;;;;;;1.20;99.90;;;;;;4878302;29;20025;-78
2023/01/26 12:18:19;;;;;;;;;;;1.20;99.90;;;;;;4874056;29;19928;-78
2023/01/26 12:20:50;;;;;;;;;;;1.20;99.90;;;;;;4878532;29;19932;-78
2023/01/26 12:23:25;;;;;;;;;;;1.20;99.90;;;;;;4876728;29;19934;-78
2023/01/26 12:25:55;;;;;;;;;;;1.20;99.90;;;;;;4874239;29;19931;-77
2023/01/26 12:28:24;;;;;;;;;;;1.20;99.90;;;;;;4876005;29;19992;-77
2023/01/26 12:30:55;;;;;;;;;;;1.20;99.90;;;;;;4876972;29;20089;-77
2023/01/26 12:33:22;;;;;;;;;;;1.20;99.90;;;;;;4872759;29;19972;-77
2023/01/26 12:35:55;;;;;;;;;;;1.20;99.90;;;;;;4859747;29;19931;-77
2023/01/26 12:38:28;;;;;;;;;;;1.20;99.90;;;;;;4868940;29;19975;-78
2023/01/26 12:41:03;;;;;;;;;;;1.20;99.90;;;;;;4875686;29;19971;-77
2023/01/26 12:43:39;;;;;;;;;;;1.20;99.90;;;;;;4869449;29;19936;-77
2023/01/26 12:46:07;;;;;;;;;;;1.20;99.90;;;;;;4875355;29;19928;-77
2023/01/26 12:48:38;;;;;;;;;;;1.20;99.90;;;;;;4878360;29;19928;-77
2023/01/26 12:51:09;;;;;;;;;;;1.10;99.90;;;;;;4873496;29;19938;-77
2023/01/26 12:53:40;;;;;;;;;;;1.10;99.90;;;;;;4873757;29;19928;-78
2023/01/26 12:56:10;;;;;;;;;;;1.10;99.90;;;;;;4873895;29;20035;-77
2023/01/26 12:58:39;;;;;;;;;;;1.10;99.90;;;;;;4873704;29;19932;-78
2023/01/26 13:01:08;;;;;;;;;;;1.20;99.90;;;;;;4871473;29;19928;-78
2023/01/26 13:03:38;;;;;;;;;;;1.10;99.90;;;;;;4870042;29;19982;-77
2023/01/26 13:06:20;;;;;;;;;;;1.20;99.90;;;;;;4872541;29;19928;-77
2023/01/26 13:08:50;;;;;;;;;;;1.20;99.90;;;;;;4873008;29;19928;-76
2023/01/26 13:11:32;;;;;;;;;;;1.10;99.90;;;;;;4871306;29;19953;-77
2023/01/26 13:13:58;;;;;;;;;;;1.20;99.90;;;;;;4877335;29;20077;-77
2023/01/26 13:16:32;;;;;;;;;;;1.20;99.90;;;;;;4873185;29;20446;-77
2023/01/26 13:19:00;;;;;;;;;;;1.10;99.90;;;;;;4876145;29;19943;-77
2023/01/26 13:21:29;;;;;;;;;;;1.20;99.90;;;;;;4872390;29;19979;-77
2023/01/26 13:23:56;;;;;;;;;;;1.10;99.90;;;;;;4878737;29;19950;-78
2023/01/26 13:26:50;;;;;;;;;;;1.10;99.90;;;;;;4871634;29;19931;-77
2023/01/26 13:29:27;;;;;;;;;;;1.10;99.90;;;;;;4878250;29;19928;-77
2023/01/26 13:31:54;;;;;;;;;;;1.20;99.90;;;;;;4873012;29;20014;-77
2023/01/26 13:34:23;;;;;;;;;;;1.20;99.90;;;;;;4871895;29;20447;-76
2023/01/26 13:36:52;;;;;;;;;;;1.20;99.90;;;;;;4876729;29;19928;-77
2023/01/26 13:39:24;;;;;;;;;;;1.20;99.90;;;;;;4871266;29;20318;-78
2023/01/26 13:41:51;;;;;;;;;;;1.20;99.90;;;;;;4874360;29;20039;-77
2023/01/26 13:44:20;;;;;;;;;;;1.20;99.90;;;;;;4864811;29;19971;-77
2023/01/26 13:46:50;;;;;;;;;;;1.20;99.90;;;;;;4878480;29;19928;-77
2023/01/26 13:49:24;;;;;;;;;;;1.20;99.90;;;;;;4872299;29;20014;-78
2023/01/26 13:51:52;;;;;;;;;;;1.20;99.90;;;;;;4875355;29;20332;-77
2023/01/26 13:54:19;;;;;;;;;;;1.20;99.90;;;;;;4873616;29;19934;-78
2023/01/26 13:56:59;;;;;;;;;;;1.20;99.90;;;;;;4869230;29;19927;-76
2023/01/26 13:59:26;;;;;;;;;;;1.20;99.90;;;;;;4874651;29;19927;-77
2023/01/26 14:01:54;;;;;;;;;;;1.20;99.90;;;;;;4873790;29;19928;-76
2023/01/26 14:04:21;;;;;;;;;;;1.20;99.90;;;;;;4872019;29;20395;-76
2023/01/26 14:06:51;;;;;;;;;;;1.20;99.90;;;;;;4876417;29;19928;-77
2023/01/26 14:09:19;;;;;;;;;;;1.20;99.90;;;;;;4875065;29;19928;-77
2023/01/26 14:11:53;;;;;;;;;;;1.20;99.90;;;;;;4874531;29;19928;-78
2023/01/26 14:14:24;;;;;;;;;;;1.20;99.90;;;;;;4868507;29;20383;-77
2023/01/26 14:16:50;;;;;;;;;;;1.20;99.90;;;;;;4872202;29;20018;-77
2023/01/26 14:19:18;;;;;;;;;;;1.20;99.90;;;;;;4874112;29;20594;-77
2023/01/26 14:21:46;;;;;;;;;;;1.20;99.90;;;;;;4871586;29;19935;-77
2023/01/26 14:24:13;;;;;;;;;;;1.20;99.90;;;;;;4877476;29;19938;-78
2023/01/26 14:26:41;;;;;;;;;;;1.20;99.90;;;;;;4869571;29;20432;-77
2023/01/26 14:29:11;;;;;;;;;;;1.20;99.90;;;;;;4875631;29;20554;-77
2023/01/26 14:31:38;;;;;;;;;;;1.10;99.90;;;;;;4866340;29;20085;-77
2023/01/26 14:34:08;;;;;;;;;;;1.10;99.90;;;;;;4868990;29;20003;-77
2023/01/26 14:36:38;;;;;;;;;;;1.10;99.90;;;;;;4867639;29;19928;-77
2023/01/26 14:39:14;;;;;;;;;;;1.10;99.90;;;;;;4872956;29;19931;-78
2023/01/26 14:41:43;;;;;;;;;;;1.10;99.90;;;;;;4871882;29;19950;-78
2023/01/26 14:44:10;;;;;;;;;;;1.10;99.90;;;;;;4870049;29;19991;-78
2023/01/26 14:46:41;;;;;;;;;;;1.20;99.90;;;;;;4865293;29;19955;-78
2023/01/26 14:49:11;;;;;;;;;;;1.10;99.90;;;;;;4872095;29;19928;-78
2023/01/26 14:51:38;;;;;;;;;;;1.10;99.90;;;;;;4877688;29;20272;-78
2023/01/26 14:54:10;;;;;;;;;;;1.20;99.90;;;;;;4877151;29;19935;-78
2023/01/26 14:56:37;;;;;;;;;;;1.20;99.90;;;;;;4871286;29;19932;-77
2023/01/26 14:59:06;;;;;;;;;;;1.20;99.90;;;;;;4878354;29;19936;-78
2023/01/26 15:01:36;;;;;;;;;;;1.20;99.90;;;;;;4872489;29;19943;-79
2023/01/26 15:04:08;;;;;;;;;;;1.20;99.90;;;;;;4856440;29;19974;-77
2023/01/26 15:06:35;;;;;;;;;;;1.20;99.90;;;;;;4858577;29;19967;-77
2023/01/26 15:09:03;;;;;;;;;;;1.20;99.90;;;;;;4873412;29;19931;-79
2023/01/26 15:14:35;;;;;;;;;;;1.20;99.90;;;;;;4862849;29;19943;-79
2023/01/26 15:17:02;;;;;;;;;;;1.20;99.90;;;;;;4875193;29;19943;-78
2023/01/26 15:19:31;;;;;;;;;;;1.20;99.90;;;;;;4878714;29;19999;-78
2023/01/26 15:21:58;;;;;;;;;;;1.20;99.90;;;;;;4870323;29;20008;-78
2023/01/26 15:24:25;;;;;;;;;;;1.20;99.90;;;;;;4878908;29;19936;-77
2023/01/26 15:26:52;;;;;;;;;;;1.20;99.90;;;;;;4870376;29;20193;-78
2023/01/26 15:29:22;;;;;;;;;;;1.20;99.90;;;;;;4872685;29;19938;-78
2023/01/26 15:31:53;;;;;;;;;;;1.20;99.90;;;;;;4857993;29;20574;-78
2023/01/26 15:34:29;;;;;;;;;;;1.20;99.90;;;;;;4867065;29;20147;-78
2023/01/26 15:36:56;;;;;;;;;;;1.20;99.90;;;;;;4870010;29;19927;-78
2023/01/26 15:39:24;;;;;;;;;;;1.20;99.90;;;;;;4861684;29;20298;-78
2023/01/26 15:42:00;;;;;;;;;;;1.10;99.90;;;;;;4866940;29;19936;-77
2023/01/26 15:44:27;;;;;;;;;;;1.20;99.90;;;;;;4869162;29;20398;-78
2023/01/26 15:46:58;;;;;;;;;;;1.20;99.90;;;;;;4870139;29;19935;-77
2023/01/26 15:49:25;;;;;;;;;;;1.20;99.90;;;;;;4874348;29;19975;-77
2023/01/26 15:51:52;;;;;;;;;;;1.20;99.90;;;;;;4862960;29;20303;-77
2023/01/26 15:54:19;;;;;;;;;;;1.20;99.90;;;;;;4872561;29;20078;-76
2023/01/26 15:56:45;;;;;;;;;;;1.20;99.90;;;;;;4868036;29;19928;-76
2023/01/26 15:59:12;;;;;;;;;;;1.20;99.90;;;;;;4870998;29;19932;-75
2023/01/26 16:01:39;;;;;;;;;;;1.20;99.90;;;;;;4866460;29;19936;-75
2023/01/26 16:04:10;;;;;;;;;;;1.20;99.90;;;;;;4870643;29;20406;-76
2023/01/26 16:06:36;;;;;;;;;;;1.20;99.90;;;;;;4872852;29;19928;-76
2023/01/26 16:09:03;;;;;;;;;;;1.20;99.90;;;;;;4869011;29;20426;-76
2023/01/26 16:11:33;;;;;;;;;;;1.20;99.90;;;;;;4873535;29;19935;-75
2023/01/26 16:14:01;;;;;;;;;;;1.20;99.90;;;;;;4870467;29;19928;-76
2023/01/26 16:16:28;;;;;;;;;;;1.20;99.90;;;;;;4873125;29;19935;-76
2023/01/26 16:18:56;;;;;;;;;;;1.20;99.90;;;;;;4874809;29;19936;-77
2023/01/26 16:21:25;;;;;;;;;;;1.20;99.90;;;;;;4868520;29;19928;-76
2023/01/26 16:23:52;;;;;;;;;;;1.20;99.90;;;;;;4869698;29;19940;-75
2023/01/26 16:26:19;;;;;;;;;;;1.20;99.90;;;;;;4867796;29;19931;-76
2023/01/26 16:28:46;;;;;;;;;;;1.20;99.90;;;;;;4868967;29;19992;-74
2023/01/26 16:31:15;;;;;;;;;;;1.20;99.90;;;;;;4861904;29;20027;-76
2023/01/26 16:33:42;;;;;;;;;;;1.20;99.90;;;;;;4866555;29;19942;-76
2023/01/26 16:36:09;;;;;;;;;;;1.20;99.90;;;;;;4868382;29;19971;-76
2023/01/26 16:38:38;;;;;;;;;;;1.20;99.90;;;;;;4866317;29;19935;-75
2023/01/26 16:41:05;;;;;;;;;;;1.20;99.90;;;;;;4866842;29;20023;-76
2023/01/26 16:43:32;;;;;;;;;;;1.20;99.90;;;;;;4863587;29;20060;-76
2023/01/26 16:45:59;;;;;;;;;;;1.20;99.90;;;;;;4859970;29;20391;-75
2023/01/26 16:48:27;;;;;;;;;;;1.20;99.90;;;;;;4869362;29;20068;-76
2023/01/26 16:50:54;;;;;;;;;;;1.20;99.90;;;;;;4864218;29;21351;-76
2023/01/26 16:53:23;;;;;;;;;;;1.10;99.90;;;;;;4873645;29;19936;-75
2023/01/26 16:55:51;;;;;;;;;;;1.10;99.90;;;;;;4864160;29;19975;-76
2023/01/26 16:58:18;;;;;;;;;;;1.10;99.90;;;;;;4867140;29;19956;-76
2023/01/26 17:00:45;;;;;;;;;;;1.10;99.90;;;;;;4870829;29;19985;-75
2023/01/26 17:03:12;;;;;;;;;;;1.10;99.90;;;;;;4866773;29;20387;-76
2023/01/26 17:05:39;;;;;;;;;;;1.10;99.90;;;;;;4853504;29;19939;-76
2023/01/26 17:08:07;;;;;;;;;;;1.10;99.90;;;;;;4871636;29;19927;-76
2023/01/26 17:10:34;;;;;;;;;;;1.10;99.90;;;;;;4851345;29;19935;-76
2023/01/26 17:13:02;;;;;;;;;;;1.10;99.90;;;;;;4868636;29;19967;-76